Leupp, Arizona
Current Conditions -  °F | °C
As of 1:56 AM on Friday 31 Oct 2014 (Local Time) from KINW Reporting Station
Clear Clear  
Wind Chill: 44°   Ceiling: Unl
Heat Index: 47°   Visibility: 10mi
Dew Point: 31°   Wind: 6mph
Humidity: 54%   Direction: NA
Pressure: 30.21"   Gusts: NA
Location:  35.3°N, 111°W
Report Text: KINW 310756Z AUTO VRB05KT 10SM CLR 08/M01 A3021 RMK AO2 SLP185 T00831006
Loading
Personal Weather Stations






























Interactive Weather Map
Tropical Storm Tracking
New forecast layout! Learn more

10-Day Weather Forecast

Advertisements
Track Severe Weather on mobile